createdAt,value
2022-09-25T00:02:05.699Z,34.03
2022-09-25T00:04:34.050Z,31.77
2022-09-25T00:07:02.351Z,33.20
2022-09-25T00:09:30.623Z,32.80
2022-09-25T00:11:58.880Z,33.50
2022-09-25T00:14:28.517Z,32.97
2022-09-25T00:16:56.821Z,32.97
2022-09-25T00:19:42.353Z,33.90
2022-09-25T00:22:10.371Z,33.93
2022-09-25T00:24:38.558Z,28.17
2022-09-25T00:27:08.609Z,31.67
2022-09-25T00:29:40.071Z,31.00
2022-09-25T00:32:10.106Z,32.80
2022-09-25T00:34:39.235Z,33.33
2022-09-25T00:37:07.938Z,29.13
2022-09-25T00:39:36.065Z,29.67
2022-09-25T00:42:04.221Z,34.00
2022-09-25T00:45:00.918Z,29.07
2022-09-25T00:47:49.822Z,27.93
2022-09-25T00:50:31.599Z,24.43
2022-09-25T00:53:04.063Z,25.37
2022-09-25T00:55:33.938Z,32.00
2022-09-25T00:58:04.763Z,30.97
2022-09-25T01:00:34.664Z,28.37
2022-09-25T01:03:05.159Z,26.60
2022-09-25T01:05:37.034Z,25.43
2022-09-25T01:08:10.165Z,26.37
2022-09-25T01:10:38.444Z,25.70
2022-09-25T01:13:07.679Z,27.00
2022-09-25T01:15:45.938Z,26.57
2022-09-25T01:18:23.093Z,26.17
2022-09-25T01:21:10.785Z,24.83
2022-09-25T01:24:14.827Z,11.83
2022-09-25T01:27:04.417Z,11.80
2022-09-25T01:29:40.280Z,25.47
2022-09-25T01:32:14.175Z,25.20
2022-09-25T01:34:49.413Z,25.60
2022-09-25T01:37:25.385Z,25.87
2022-09-25T01:40:02.378Z,25.47
2022-09-25T01:42:33.820Z,31.40
2022-09-25T01:45:06.583Z,33.40
2022-09-25T01:47:39.008Z,29.87
2022-09-25T01:50:11.123Z,27.60
2022-09-25T01:52:42.888Z,28.97
2022-09-25T01:55:16.214Z,28.10
2022-09-25T01:57:49.801Z,27.67
2022-09-25T02:00:25.129Z,28.03
2022-09-25T02:02:57.229Z,27.03
2022-09-25T02:05:31.286Z,29.53
2022-09-25T02:08:03.428Z,26.10
2022-09-25T02:10:37.198Z,27.70
2022-09-25T02:13:11.003Z,25.87
2022-09-25T02:15:44.441Z,26.30
2022-09-25T02:18:32.707Z,24.77
2022-09-25T02:21:13.425Z,24.97
2022-09-25T02:23:50.916Z,22.60
2022-09-25T02:26:25.969Z,21.80
2022-09-25T02:28:54.997Z,22.93
2022-09-25T02:31:33.816Z,23.90
2022-09-25T02:34:02.247Z,24.47
2022-09-25T02:36:32.432Z,25.70
2022-09-25T02:39:04.668Z,26.87
2022-09-25T02:41:48.197Z,25.90
2022-09-25T02:44:23.273Z,25.37
2022-09-25T02:47:06.018Z,23.83
2022-09-25T02:49:46.350Z,23.60
2022-09-25T02:52:20.910Z,22.93
2022-09-25T02:54:55.128Z,24.73
2022-09-25T02:57:33.120Z,23.50
2022-09-25T03:00:05.284Z,23.23
2022-09-25T03:02:36.981Z,23.00
2022-09-25T03:05:12.450Z,23.77
2022-09-25T03:07:55.560Z,22.83
2022-09-25T03:10:24.806Z,22.63
2022-09-25T03:12:53.085Z,23.43
2022-09-25T03:15:23.912Z,22.57
2022-09-25T03:17:53.842Z,22.70
2022-09-25T03:20:21.925Z,23.83
2022-09-25T03:22:50.097Z,22.90
2022-09-25T03:25:18.203Z,22.17
2022-09-25T03:27:48.582Z,22.60
2022-09-25T03:30:19.126Z,22.40
2022-09-25T03:32:49.980Z,22.80
2022-09-25T03:35:19.666Z,21.40
2022-09-25T03:37:52.776Z,23.57
2022-09-25T03:40:27.068Z,22.40
2022-09-25T03:42:55.215Z,23.73
2022-09-25T03:45:23.476Z,23.00
2022-09-25T03:47:57.341Z,23.20
2022-09-25T03:51:17.955Z,22.40
2022-09-25T03:54:00.460Z,22.10
2022-09-25T03:56:30.475Z,22.50
2022-09-25T03:59:00.191Z,22.73
2022-09-25T04:01:29.332Z,21.77
2022-09-25T04:04:01.235Z,21.73
2022-09-25T04:06:31.110Z,22.20
2022-09-25T04:08:59.305Z,22.23
2022-09-25T04:11:29.473Z,20.03
2022-09-25T04:13:58.229Z,22.80
2022-09-25T04:16:30.747Z,22.57
2022-09-25T04:19:01.271Z,22.40
2022-09-25T04:21:33.572Z,21.60
2022-09-25T04:24:19.698Z,22.00
2022-09-25T04:26:50.753Z,22.00
2022-09-25T04:29:18.954Z,21.50
2022-09-25T04:32:07.727Z,21.67
2022-09-25T04:34:35.117Z,20.50
2022-09-25T04:37:04.834Z,21.57
2022-09-25T04:39:43.570Z,21.33
2022-09-25T04:42:12.112Z,20.80
2022-09-25T04:44:40.340Z,20.90
2022-09-25T04:47:08.412Z,22.47
2022-09-25T04:49:37.569Z,22.67
2022-09-25T04:52:10.219Z,21.93
2022-09-25T04:54:40.324Z,21.63
2022-09-25T04:57:12.695Z,21.40
2022-09-25T04:59:40.933Z,21.30
2022-09-25T05:02:09.780Z,21.70
2022-09-25T05:04:38.178Z,23.20
2022-09-25T05:07:06.841Z,22.13
2022-09-25T05:09:36.478Z,22.50
2022-09-25T05:12:05.640Z,23.07
2022-09-25T05:14:36.346Z,22.53
2022-09-25T05:17:05.236Z,22.53
2022-09-25T05:19:36.238Z,21.70
2022-09-25T05:22:04.661Z,22.30
2022-09-25T05:24:33.129Z,23.30
2022-09-25T05:27:04.250Z,22.10
2022-09-25T05:29:32.715Z,22.30
2022-09-25T05:32:04.154Z,22.83
2022-09-25T05:34:32.538Z,22.70
2022-09-25T05:37:04.708Z,22.03
2022-09-25T05:39:33.124Z,23.03
2022-09-25T05:42:03.480Z,23.10
2022-09-25T05:44:31.654Z,23.57
2022-09-25T05:46:59.946Z,23.60
2022-09-25T05:49:28.875Z,25.13
2022-09-25T05:51:57.050Z,24.03
2022-09-25T05:54:25.134Z,23.80
2022-09-25T05:57:00.568Z,24.67
2022-09-25T05:59:30.334Z,24.80
2022-09-25T06:01:58.532Z,25.27
2022-09-25T06:04:27.193Z,24.83
2022-09-25T06:06:55.364Z,23.83
2022-09-25T06:09:23.718Z,22.90
2022-09-25T06:11:53.586Z,23.17
2022-09-25T06:14:22.192Z,22.57
2022-09-25T06:16:52.535Z,22.83
2022-09-25T06:19:21.019Z,22.20
2022-09-25T06:21:49.315Z,21.50
2022-09-25T06:24:17.494Z,21.23
2022-09-25T06:26:46.232Z,21.40
2022-09-25T06:29:14.465Z,22.43
2022-09-25T06:31:42.742Z,21.30
2022-09-25T06:34:13.067Z,21.90
2022-09-25T06:36:41.270Z,21.10
2022-09-25T06:39:09.716Z,21.70
2022-09-25T06:41:37.936Z,22.73
2022-09-25T06:44:09.179Z,22.50
2022-09-25T06:46:37.479Z,22.73
2022-09-25T06:49:07.993Z,23.30
2022-09-25T06:51:39.453Z,21.20
2022-09-25T06:54:07.791Z,23.70
2022-09-25T06:56:36.123Z,24.10
2022-09-25T06:59:04.382Z,23.60
2022-09-25T07:01:43.362Z,23.60
2022-09-25T07:04:13.532Z,23.20
2022-09-25T07:06:45.148Z,23.63
2022-09-25T07:09:21.811Z,24.20
2022-09-25T07:11:51.764Z,23.27
2022-09-25T07:14:22.993Z,23.23
2022-09-25T07:16:53.493Z,22.83
2022-09-25T07:19:25.772Z,24.40
2022-09-25T07:21:59.619Z,24.60
2022-09-25T07:24:27.786Z,25.10
2022-09-25T07:26:56.022Z,23.30
2022-09-25T07:29:24.580Z,26.50
2022-09-25T07:31:52.976Z,24.37
2022-09-25T07:34:21.453Z,24.40
2022-09-25T07:36:53.039Z,24.13
2022-09-25T07:39:25.754Z,24.63
2022-09-25T07:41:55.703Z,23.63
2022-09-25T07:44:29.067Z,23.60
2022-09-25T07:46:58.463Z,24.20
2022-09-25T07:49:26.736Z,24.63
2022-09-25T07:51:54.890Z,24.30
2022-09-25T07:54:23.900Z,24.37
2022-09-25T07:56:53.824Z,23.33
2022-09-25T07:59:22.044Z,21.20
2022-09-25T08:01:54.332Z,23.30
2022-09-25T08:04:22.738Z,22.03
2022-09-25T08:06:53.705Z,23.10
2022-09-25T08:09:24.438Z,23.13
2022-09-25T08:11:54.178Z,22.27
2022-09-25T08:14:27.029Z,23.70
2022-09-25T08:16:56.154Z,22.00
2022-09-25T08:19:24.674Z,22.10
2022-09-25T08:21:52.921Z,21.70
2022-09-25T08:24:20.994Z,21.10
2022-09-25T08:26:50.201Z,22.90
2022-09-25T08:29:19.601Z,22.47
2022-09-25T08:31:47.928Z,22.70
2022-09-25T08:34:39.541Z,23.47
2022-09-25T08:37:09.761Z,22.30
2022-09-25T08:39:39.734Z,23.37
2022-09-25T08:42:13.155Z,23.47
2022-09-25T08:45:09.038Z,24.70
2022-09-25T08:47:57.924Z,24.60
2022-09-25T08:50:30.579Z,24.67
2022-09-25T08:53:13.454Z,23.33
2022-09-25T08:56:02.327Z,24.10
2022-09-25T08:58:43.496Z,24.07
2022-09-25T09:01:22.295Z,23.60
2022-09-25T09:03:57.898Z,24.90
2022-09-25T09:06:43.707Z,25.00
2022-09-25T09:09:22.351Z,24.27
2022-09-25T09:12:00.605Z,24.37
2022-09-25T09:14:32.958Z,23.23
2022-09-25T09:17:13.633Z,23.90
2022-09-25T09:19:45.859Z,24.87
2022-09-25T09:22:27.353Z,26.43
2022-09-25T09:25:11.021Z,24.13
2022-09-25T09:28:10.214Z,24.83
2022-09-25T09:30:54.885Z,25.47
2022-09-25T09:33:43.409Z,26.33
2022-09-25T09:36:25.737Z,25.23
2022-09-25T09:39:11.486Z,23.53
2022-09-25T09:41:51.056Z,24.80
2022-09-25T09:44:31.907Z,24.37
2022-09-25T09:47:15.768Z,24.43
2022-09-25T09:50:15.807Z,23.30
2022-09-25T09:53:02.873Z,23.40
2022-09-25T09:55:42.521Z,24.10
2022-09-25T09:58:45.844Z,23.83
2022-09-25T10:06:22.514Z,23.17
2022-09-25T10:12:37.043Z,22.67
2022-09-25T10:15:16.155Z,23.80
2022-09-25T10:21:03.587Z,23.30
2022-09-25T10:24:08.751Z,22.70
2022-09-25T10:27:38.612Z,21.83
2022-09-25T10:30:33.576Z,22.10
2022-09-25T10:33:42.028Z,22.33
2022-09-25T10:36:53.070Z,21.43
2022-09-25T10:39:59.369Z,21.57
2022-09-25T10:42:53.196Z,19.90
2022-09-25T10:45:54.410Z,20.60
2022-09-25T10:48:49.212Z,21.57
2022-09-25T10:51:27.374Z,20.20
2022-09-25T10:57:43.501Z,19.53
2022-09-25T11:04:07.900Z,18.87
2022-09-25T11:06:48.079Z,19.27
2022-09-25T11:09:48.230Z,18.40
2022-09-25T11:12:53.853Z,18.90
2022-09-25T11:16:18.498Z,18.43
2022-09-25T11:22:21.057Z,18.20
2022-09-25T11:25:02.740Z,19.57
2022-09-25T11:27:38.281Z,19.00
2022-09-25T11:30:14.750Z,18.40
2022-09-25T11:33:09.219Z,17.90
2022-09-25T11:35:47.205Z,18.13
2022-09-25T11:38:41.167Z,18.83
2022-09-25T11:41:23.333Z,18.53
2022-09-25T11:44:28.800Z,18.13
2022-09-25T11:47:08.218Z,18.10
2022-09-25T11:49:41.273Z,18.30
2022-09-25T11:52:28.473Z,17.93
2022-09-25T11:55:37.213Z,18.27
2022-09-25T11:58:36.550Z,18.67
2022-09-25T12:01:16.019Z,20.37
2022-09-25T12:04:01.831Z,20.90
2022-09-25T12:06:53.367Z,20.33
2022-09-25T12:09:43.798Z,19.77
2022-09-25T12:12:20.861Z,19.83
2022-09-25T12:15:14.446Z,19.30
2022-09-25T12:17:52.115Z,18.60
2022-09-25T12:20:33.708Z,19.00
2022-09-25T12:23:18.812Z,18.97
2022-09-25T12:26:07.532Z,18.70
2022-09-25T12:28:52.310Z,19.00
2022-09-25T12:31:34.404Z,18.63
2022-09-25T12:34:17.656Z,19.00
2022-09-25T12:36:50.459Z,18.13
2022-09-25T12:39:32.586Z,18.53
2022-09-25T12:42:15.035Z,18.87
2022-09-25T12:44:49.297Z,17.90
2022-09-25T12:47:27.042Z,18.30
2022-09-25T12:50:12.873Z,18.67
2022-09-25T12:52:45.307Z,19.40
2022-09-25T12:55:41.630Z,18.70
2022-09-25T12:58:21.505Z,19.27
2022-09-25T13:00:55.963Z,18.53
2022-09-25T13:03:45.021Z,18.60
2022-09-25T13:06:23.578Z,18.80
2022-09-25T13:08:56.496Z,18.00
2022-09-25T13:11:39.594Z,18.20
2022-09-25T13:14:21.570Z,18.90
2022-09-25T13:16:50.323Z,18.03
2022-09-25T13:19:28.272Z,17.60
2022-09-25T13:22:05.741Z,17.33
2022-09-25T13:24:41.484Z,18.10
2022-09-25T13:27:37.413Z,18.30
2022-09-25T13:30:22.753Z,17.70
2022-09-25T13:32:54.955Z,17.10
2022-09-25T13:35:25.129Z,17.63
2022-09-25T13:37:55.422Z,16.30
2022-09-25T13:40:45.117Z,16.70
2022-09-25T13:43:24.434Z,16.83
2022-09-25T13:46:27.202Z,16.50
2022-09-25T13:49:11.707Z,15.53
2022-09-25T13:51:45.963Z,16.60
2022-09-25T13:54:34.450Z,17.00
2022-09-25T13:57:03.824Z,17.20
2022-09-25T13:59:42.859Z,16.97
2022-09-25T14:02:41.994Z,17.10
2022-09-25T14:05:16.708Z,16.60
2022-09-25T14:07:46.782Z,17.70
2022-09-25T14:10:15.649Z,17.33
2022-09-25T14:12:46.770Z,16.70
2022-09-25T14:15:24.653Z,16.70
2022-09-25T14:17:56.172Z,16.73
2022-09-25T14:20:46.227Z,16.43
2022-09-25T14:23:16.991Z,16.60
2022-09-25T14:25:47.633Z,17.30
2022-09-25T14:28:20.582Z,16.80
2022-09-25T14:31:17.941Z,16.60
2022-09-25T14:34:05.464Z,17.57
2022-09-25T14:36:41.932Z,18.70
2022-09-25T14:39:29.289Z,17.70
2022-09-25T14:42:30.657Z,17.87
2022-09-25T14:45:18.998Z,17.03
2022-09-25T14:47:53.794Z,17.50
2022-09-25T14:50:44.930Z,16.40
2022-09-25T14:53:19.206Z,16.73
2022-09-25T14:55:52.954Z,17.23
2022-09-25T14:58:24.846Z,17.50
2022-09-25T15:00:56.783Z,16.97
2022-09-25T15:03:30.254Z,17.20
2022-09-25T15:06:01.394Z,17.33
2022-09-25T15:08:38.172Z,16.80
2022-09-25T15:11:13.067Z,18.33
2022-09-25T15:13:43.516Z,17.50
2022-09-25T15:16:33.788Z,16.20
2022-09-25T15:19:09.525Z,16.50
2022-09-25T15:21:38.251Z,17.93
2022-09-25T15:24:14.379Z,16.50
2022-09-25T15:26:49.489Z,17.63
2022-09-25T15:29:22.661Z,19.33
2022-09-25T15:31:52.343Z,18.00
2022-09-25T15:34:27.396Z,17.63
2022-09-25T15:36:55.659Z,17.60
2022-09-25T15:39:27.501Z,17.30
2022-09-25T15:41:55.799Z,17.10
2022-09-25T15:44:26.820Z,16.53
2022-09-25T15:46:56.940Z,15.90
2022-09-25T15:49:31.022Z,16.90
2022-09-25T15:52:01.282Z,18.10
2022-09-25T15:54:35.859Z,18.40
2022-09-25T15:57:07.334Z,19.67
2022-09-25T16:00:00.176Z,22.90
2022-09-25T16:02:52.473Z,21.00
2022-09-25T16:05:30.255Z,20.83
2022-09-25T16:08:20.051Z,19.33
2022-09-25T16:10:50.281Z,19.87
2022-09-25T16:13:23.978Z,29.63
2022-09-25T16:15:53.363Z,34.70
2022-09-25T16:18:28.707Z,27.70
2022-09-25T16:21:09.409Z,19.43
2022-09-25T16:23:38.611Z,18.60
2022-09-25T16:26:14.958Z,17.80
2022-09-25T16:28:54.198Z,18.63
2022-09-25T16:31:24.841Z,18.87
2022-09-25T16:33:57.114Z,19.30
2022-09-25T16:36:28.601Z,21.30
2022-09-25T16:39:16.039Z,21.87
2022-09-25T16:42:08.083Z,20.60
2022-09-25T16:48:41.656Z,28.00
2022-09-25T16:51:35.696Z,24.40
2022-09-25T16:57:45.968Z,35.87
2022-09-25T17:00:37.451Z,35.40
2022-09-25T17:03:34.399Z,31.20
2022-09-25T17:06:14.227Z,25.70
2022-09-25T17:08:43.897Z,27.70
2022-09-25T17:15:13.335Z,21.83
2022-09-25T17:17:57.751Z,22.17
2022-09-25T17:20:31.181Z,21.00
2022-09-25T17:23:02.837Z,21.80
2022-09-25T17:25:48.336Z,21.10
2022-09-25T17:28:22.935Z,21.77
2022-09-25T17:30:55.562Z,22.20
2022-09-25T17:34:22.450Z,23.50
2022-09-25T17:46:41.111Z,35.00
2022-09-25T17:49:11.633Z,39.70
2022-09-25T17:51:45.742Z,34.03
2022-09-25T17:55:04.113Z,35.83
2022-09-25T18:15:41.735Z,26.03
2022-09-25T18:18:24.183Z,28.03
2022-09-25T18:21:14.803Z,27.77
2022-09-25T18:23:46.291Z,31.03
2022-09-25T18:34:09.406Z,34.73
2022-09-25T18:37:09.957Z,33.57
2022-09-25T18:39:48.238Z,33.93
2022-09-25T18:42:28.146Z,34.00
2022-09-25T18:48:26.552Z,33.67
2022-09-25T18:51:33.916Z,33.53
2022-09-25T19:01:04.098Z,32.07
2022-09-25T19:03:35.862Z,30.70
2022-09-25T19:06:08.144Z,34.80
2022-09-25T19:13:12.190Z,36.67
2022-09-25T19:15:59.110Z,37.03
2022-09-25T19:18:56.327Z,39.13
2022-09-25T19:23:14.031Z,36.43
2022-09-25T19:26:26.582Z,30.70
2022-09-25T19:29:35.813Z,36.47
2022-09-25T19:32:43.976Z,31.47
2022-09-25T19:35:50.924Z,34.03
2022-09-25T19:39:32.814Z,34.20
2022-09-25T19:41:53.436Z,30.60
2022-09-25T19:45:27.989Z,27.17
2022-09-25T19:48:26.055Z,25.50
2022-09-25T19:51:23.169Z,26.40
2022-09-25T19:54:04.283Z,26.40
2022-09-25T19:56:54.643Z,25.80
2022-09-25T19:59:44.255Z,25.90
2022-09-25T20:02:32.202Z,25.63
2022-09-25T20:05:36.869Z,25.30
2022-09-25T20:08:35.572Z,26.77
2022-09-25T20:11:26.108Z,26.17
2022-09-25T20:14:08.179Z,26.30
2022-09-25T20:16:40.178Z,25.57
2022-09-25T20:19:59.758Z,26.50
2022-09-25T20:37:44.201Z,34.07
2022-09-25T20:44:03.114Z,34.70
2022-09-25T20:46:55.533Z,38.10
2022-09-25T20:49:39.767Z,33.90
2022-09-25T21:00:04.616Z,28.97
2022-09-25T21:02:51.261Z,27.40
2022-09-25T21:06:13.023Z,28.40
2022-09-25T21:09:44.385Z,26.00
2022-09-25T21:16:21.950Z,26.90
2022-09-25T21:19:07.212Z,25.90
2022-09-25T21:25:50.475Z,25.70
2022-09-25T21:35:21.674Z,26.50
2022-09-25T21:38:04.165Z,27.20
2022-09-25T21:41:19.149Z,27.40
2022-09-25T21:44:45.532Z,25.90
2022-09-25T21:52:19.326Z,27.87
2022-09-25T22:02:31.300Z,27.67
2022-09-25T22:05:40.572Z,26.20
2022-09-25T22:08:34.349Z,25.13
2022-09-25T22:12:01.527Z,27.00
2022-09-25T22:15:16.839Z,27.57
2022-09-25T22:19:04.300Z,26.20
2022-09-25T22:22:30.989Z,27.30
2022-09-25T22:28:42.908Z,27.03
2022-09-25T22:31:52.328Z,26.57
2022-09-25T22:34:59.280Z,26.90
2022-09-25T22:42:46.519Z,27.10
2022-09-25T22:53:37.551Z,26.50
2022-09-25T22:56:36.770Z,27.13
2022-09-25T22:59:18.706Z,27.20
2022-09-25T23:02:56.186Z,29.00
2022-09-25T23:09:05.088Z,28.67
2022-09-25T23:16:31.010Z,26.07
2022-09-25T23:23:34.802Z,26.10
2022-09-25T23:26:59.476Z,27.83
2022-09-25T23:34:14.290Z,27.37
2022-09-25T23:37:37.406Z,27.40
2022-09-25T23:43:55.831Z,25.43
2022-09-25T23:47:40.105Z,27.73
2022-09-25T23:50:17.396Z,27.63
2022-09-25T23:57:06.000Z,26.27
2022-09-25T23:59:42.698Z,27.37
